Nearby METAR Reports

 

KBAX - Bad Axe, Michigan, USA
Distance from station: ESE 22mi, 35km
Updated: Sat, 23-Jan-2021 12:35pm EST
Overcast
Overcast
 Wind from W
Wind: W 6 mph , 9 km/h
Temperature: 21°F , -6°C
Wind Chill: 13°F , -11°C
Dew Point: 12°F , -11°C
Humidity: 68%
Barometer: 30.32 inHg , 1026.8 hPa
Clouds: Overcast
Visibility: 10 miles , 16 km
Cloud details: Overcast 2700 ft
2021/01/23 17:35 KBAX 231735Z AUTO 28005KT 10SM OVC027 M06/M11 A3032 RMK AO2 T10611111
KFNT - Flint, Michigan, USA
Distance from station: SSW 68mi, 109km
Updated: Sat, 23-Jan-2021 12:23pm EST
Mostly cloudy
Mostly cloudy
 Wind from W
Wind: W 13 mph , 20 km/h
Temperature: 25°F , -4°C
Wind Chill: 13°F , -11°C
Dew Point: 10°F , -12°C
Humidity: 54%
Barometer: 30.36 inHg , 1028.1 hPa
Clouds: Mostly cloudy
Visibility: 10 miles , 16 km
Cloud details: Mostly cloudy 2600 ft
2021/01/23 17:23 KFNT 231723Z 28011KT 10SM BKN026 M04/M12 A3036 RMK AO2 T10441122
KMBS - Saginaw, Michigan, USA
Distance from station: SW 44mi, 70km
Updated: Sat, 23-Jan-2021 11:53am EST
Clear
Clear
 Wind from W
Wind: W 10 mph , 17 km/h
Temperature: 25°F , -4°C
Wind Chill: 15°F , -9°C
Dew Point: 10°F , -12°C
Humidity: 54%
Barometer: 30.37 inHg , 1028.4 hPa
Clouds: Clear
Visibility: 10 miles , 16 km
2021/01/23 16:53 KMBS 231653Z 26009KT 220V300 10SM CLR M04/M12 A3037 RMK AO2 SLP294 T10441117
 
KDTW - Detroit/Wayne, Michigan, USA
Distance from station: SSE 117mi, 188km
Updated: Sat, 23-Jan-2021 11:53am EST
Few Clouds
Few Clouds
 Wind from WNW
Wind: WNW 9 mph , 15 km/h
Temperature: 25°F , -4°C
Wind Chill: 16°F , -9°C
Dew Point: 7°F , -14°C
Humidity: 46%
Barometer: 30.38 inHg , 1028.8 hPa
Clouds: Few Clouds
Visibility: 10 miles , 16 km
Cloud details: Few Clouds 3000 ft
2021/01/23 16:53 KDTW 231653Z 29008KT 10SM FEW030 M04/M14 A3038 RMK AO2 SLP297 T10441139
KP58 - Port Hope, Michigan, USA
Distance from station: ENE 30mi, 48km
Updated: Sat, 23-Jan-2021 11:55am EST

 Wind from NW
Wind: NW 12 mph , 19 km/h
Temperature: 25°F , -4°C
Wind Chill: 14°F , -10°C
Dew Point: 12°F , -11°C
Humidity: 59%
Barometer: 30.32 inHg , 1026.8 hPa
2021/01/23 16:55 KP58 231655Z AUTO 31010KT M04/M11 A3032 RMK AO1 SLP282 T10441111
KCFS - Caro/Tuscola, Michigan, USA
Distance from station: S 31mi, 50km
Updated: Sat, 23-Jan-2021 12:35pm EST
Mostly cloudy
Mostly cloudy
 Wind from WSW
Wind: WSW 5 mph , 7 km/h
Temperature: 25°F , -4°C
Wind Chill: 19°F , -7°C
Dew Point: 12°F , -11°C
Humidity: 59%
Barometer: 30.34 inHg , 1027.4 hPa
Clouds: Mostly cloudy
Visibility: 10 miles , 16 km
Cloud details: Mostly cloudy 2500 ft
2021/01/23 17:35 KCFS 231735Z AUTO 24004KT 10SM BKN025 M04/M11 A3034 RMK AO2 T10441109
 
KPHN - Port Huron, Michigan, USA
Distance from station: SSE 81mi, 131km
Updated: Sat, 23-Jan-2021 12:35pm EST
Overcast
Overcast
 Wind from WNW
Wind: WNW 6 mph , 9 km/h
Temperature: 23°F , -5°C
Wind Chill: 16°F , -9°C
Dew Point: 9°F , -13°C
Humidity: 54%
Barometer: 30.35 inHg , 1027.8 hPa
Clouds: Overcast
Visibility: 10 miles , 16 km
Cloud details: Overcast 3000 ft
2021/01/23 17:35 KPHN 231735Z AUTO 29005KT 10SM OVC030 M05/M13 A3035 RMK AO2
KPTK - Pontiac, Michigan, USA
Distance from station: S 86mi, 138km
Updated: Sat, 23-Jan-2021 11:53am EST
Few Clouds
Few Clouds
 Wind from WNW
Wind: WNW 6 mph , 9 km/h
Temperature: 21°F , -6°C
Wind Chill: 13°F , -11°C
Dew Point: 9°F , -13°C
Humidity: 58%
Barometer: 30.33 inHg , 1027.1 hPa
Clouds: Few Clouds
Visibility: 10 miles , 16 km
Cloud details: Few Clouds 2500 ft
2021/01/23 16:53 KPTK 231653Z 30005KT 10SM FEW025 M06/M13 A3033 RMK AO2 SLP289 T10611133
KMTC - Selfridge Angb, Michigan, USA
Distance from station: SSE 94mi, 151km
Updated: Wed, 20-Jan-2021 1:56pm EST
NOT Current
Overcast
Overcast
 Wind from WSW
Wind: WSW 12 mph , 19 km/h
Temperature: 27°F , -3°C
Wind Chill: 16°F , -9°C
Dew Point: 16°F , -9°C
Humidity: 64%
Barometer: 30.13 inHg , 1020.3 hPa
Clouds: Overcast
Visibility: 10 miles , 16 km
Cloud details: Overcast 3100 ft
2021/01/20 18:56 KMTC 201856Z 24010KT 10SM OVC031 M03/M09 A3013 RMK AO2A SLP217 T10341087 $